Time;durP1;ratioP1;P1;durP2;ratioP2;P2;SDS_P1;SDS_P2;PMS_P1;PMS_P2;Temp;Humidity;BMP_temperature;BMP_pressure;BME280_temperature;BME280_humidity;BME280_pressure;Samples;Min_cycle;Max_cycle;Signal;HPM_P1;HPM_P2
2023/01/24 00:00:30;;;;;;;27.10;24.30;;;;;;;1.79;98.91;103736.94;5049215;28;20448;-79
2023/01/24 00:02:55;;;;;;;26.33;23.73;;;;;;;1.80;99.42;103738.66;5051735;28;20028;-79
2023/01/24 00:05:21;;;;;;;27.17;24.38;;;;;;;1.81;98.66;103748.19;5050988;28;20074;-79
2023/01/24 00:07:46;;;;;;;26.65;23.95;;;;;;;1.80;98.96;103733.47;5048323;28;20519;-79
2023/01/24 00:10:16;;;;;;;27.20;24.50;;;;;;;1.81;99.61;103743.00;5051486;28;20021;-79
2023/01/24 00:12:44;;;;;;;26.50;23.73;;;;;;;1.80;98.81;103743.88;5051533;28;20044;-79
2023/01/24 00:15:16;;;;;;;26.60;23.80;;;;;;;1.81;99.44;103739.53;5050441;28;20057;-79
2023/01/24 00:17:42;;;;;;;26.02;23.40;;;;;;;1.79;99.42;103742.13;5052471;28;20017;-79
2023/01/24 00:20:08;;;;;;;25.52;22.92;;;;;;;1.80;99.59;103743.88;5046024;28;20400;-79
2023/01/24 00:22:33;;;;;;;25.67;23.08;;;;;;;1.78;99.29;103740.38;5040839;28;20433;-79
2023/01/24 00:24:58;;;;;;;25.85;23.25;;;;;;;1.80;98.67;103741.25;5047465;28;20025;-79
2023/01/24 00:27:24;;;;;;;26.08;23.48;;;;;;;1.81;99.20;103735.22;5047511;28;20021;-79
2023/01/24 00:29:49;;;;;;;26.98;24.27;;;;;;;1.78;99.25;103735.19;5051568;28;20495;-79
2023/01/24 00:32:14;;;;;;;25.98;23.30;;;;;;;1.81;98.80;103735.22;5051622;28;20500;-82
2023/01/24 00:34:40;;;;;;;25.77;23.05;;;;;;;1.80;98.44;103728.28;5051501;28;20105;-81
2023/01/24 00:37:05;;;;;;;26.25;23.48;;;;;;;1.81;98.40;103730.03;5049431;28;20025;-79
2023/01/24 00:39:31;;;;;;;26.67;23.98;;;;;;;1.80;98.67;103723.09;5051623;28;20025;-79
2023/01/24 00:41:56;;;;;;;27.05;24.23;;;;;;;1.79;99.71;103721.34;5050556;28;20021;-79
2023/01/24 00:44:21;;;;;;;26.42;23.63;;;;;;;1.79;99.38;103716.16;5046995;28;20597;-79
2023/01/24 00:46:47;;;;;;;25.25;22.77;;;;;;;1.79;99.21;103713.56;5051901;28;20071;-79
2023/01/24 00:49:12;;;;;;;25.92;23.23;;;;;;;1.81;97.92;103708.38;5048713;28;20094;-79
2023/01/24 00:51:37;;;;;;;26.42;23.63;;;;;;;1.80;98.23;103717.03;5050012;28;20039;-79
2023/01/24 00:54:03;;;;;;;27.23;24.40;;;;;;;1.81;98.18;103709.25;5052063;28;20043;-79
2023/01/24 00:56:28;;;;;;;26.15;23.45;;;;;;;1.81;97.97;103717.03;5051230;28;20024;-79
2023/01/24 00:58:53;;;;;;;26.00;23.35;;;;;;;1.79;98.55;103715.28;5050461;28;20033;-79
2023/01/24 01:01:19;;;;;;;26.23;23.42;;;;;;;1.78;98.83;103722.22;5035033;28;20025;-79
2023/01/24 01:03:44;;;;;;;27.17;24.30;;;;;;;1.77;99.11;103723.06;5042275;28;20082;-79
2023/01/24 01:06:13;;;;;;;27.08;24.27;;;;;;;1.78;99.37;103719.63;5050875;28;20060;-79
2023/01/24 01:08:41;;;;;;;24.88;22.35;;;;;;;1.79;98.09;103720.50;5048496;28;20052;-79
2023/01/24 01:11:07;;;;;;;25.85;23.20;;;;;;;1.77;97.69;103712.69;5050479;28;20493;-79
2023/01/24 01:13:33;;;;;;;25.13;22.52;;;;;;;1.76;97.98;103715.28;5050901;28;20033;-81
2023/01/24 01:16:11;;;;;;;25.63;22.92;;;;;;;1.75;98.02;103714.41;5050528;28;20393;-81
2023/01/24 01:18:37;;;;;;;24.92;22.33;;;;;;;1.73;97.85;103705.75;5045211;28;20538;-79
2023/01/24 01:21:04;;;;;;;25.25;22.67;;;;;;;1.72;97.87;103698.81;5048800;28;20020;-79
2023/01/24 01:23:29;;;;;;;24.92;22.33;;;;;;;1.72;98.31;103704.00;5036000;28;20090;-81
2023/01/24 01:26:04;;;;;;;24.35;21.85;;;;;;;1.72;97.55;103709.19;5047688;28;20455;-81
2023/01/24 01:28:30;;;;;;;23.48;21.08;;;;;;;1.69;98.51;103698.78;5050332;28;20033;-79
2023/01/24 01:30:56;;;;;;;23.77;21.27;;;;;;;1.69;98.44;103703.97;5049295;28;20861;-79
2023/01/24 01:33:23;;;;;;;23.02;20.63;;;;;;;1.69;97.84;103709.16;5042846;28;20026;-79
2023/01/24 01:35:49;;;;;;;22.42;20.20;;;;;;;1.72;97.84;103710.91;5035700;28;20052;-79
2023/01/24 01:38:15;;;;;;;23.17;20.88;;;;;;;1.72;98.63;103721.28;5049860;28;20024;-79
2023/01/24 01:40:41;;;;;;;22.92;20.55;;;;;;;1.73;97.82;103721.31;5049581;28;20029;-79
2023/01/24 01:43:21;;;;;;;23.63;21.15;;;;;;;1.73;97.82;103705.75;5049930;28;20112;-78
2023/01/24 01:45:52;;;;;;;22.88;20.52;;;;;;;1.72;98.06;103709.19;5049200;28;20028;-79
2023/01/24 01:48:33;;;;;;;22.60;20.30;;;;;;;1.72;98.68;103709.19;5050499;28;20029;-79
2023/01/24 01:51:10;;;;;;;22.90;20.60;;;;;;;1.70;98.12;103710.03;5044750;28;20025;-79
2023/01/24 01:53:40;;;;;;;24.23;21.73;;;;;;;1.68;98.29;103712.63;5047184;28;20497;-79
2023/01/24 01:56:21;;;;;;;23.20;20.80;;;;;;;1.69;97.97;103714.34;5049849;28;20037;-79
2023/01/24 01:58:47;;;;;;;23.50;21.13;;;;;;;1.69;97.76;103709.16;5048635;28;20041;-79
2023/01/24 02:01:12;;;;;;;23.88;21.38;;;;;;;1.70;98.65;103710.03;5047213;28;20037;-79
2023/01/24 02:03:49;;;;;;;24.33;21.83;;;;;;;1.69;98.63;103705.69;5047494;28;20072;-79
2023/01/24 02:07:00;;;;;;;23.77;21.35;;;;;;;1.72;98.63;103709.19;5042791;28;20029;-79
2023/01/24 02:09:33;;;;;;;23.60;21.17;;;;;;;1.68;98.93;103702.22;4987769;28;20197;-79
2023/01/24 02:12:03;;;;;;;23.90;21.50;;;;;;;1.67;99.29;103700.50;4989794;28;20429;-79
2023/01/24 02:17:17;;;;;;;25.55;22.83;;;;;;;1.67;99.71;103707.41;5048097;28;20044;-79
2023/01/24 02:20:05;;;;;;;25.35;22.80;;;;;;;1.67;99.38;103704.81;5044239;28;20027;-81
2023/01/24 02:23:06;;;;;;;25.35;22.77;;;;;;;1.69;99.08;103698.78;5031032;28;20057;-81
2023/01/24 02:25:44;;;;;;;25.65;22.85;;;;;;;1.67;99.86;103702.22;5045329;28;20029;-82
2023/01/24 02:28:11;;;;;;;24.98;22.38;;;;;;;1.67;99.79;103700.50;5047828;28;20029;-82
2023/01/24 02:30:38;;;;;;;26.55;23.75;;;;;;;1.64;99.97;103695.28;5049104;28;20025;-82
2023/01/24 02:33:15;;;;;;;27.23;24.33;;;;;;;1.66;100.00;103703.94;5049396;28;20028;-79
2023/01/24 02:35:41;;;;;;;26.63;23.92;;;;;;;1.66;99.65;103696.16;5048166;28;20477;-79
2023/01/24 02:38:29;;;;;;;27.05;24.17;;;;;;;1.65;99.53;103697.03;5047261;28;20028;-79
2023/01/24 02:41:06;;;;;;;26.67;23.77;;;;;;;1.63;99.88;103698.72;5041451;28;20078;-79
2023/01/24 02:43:35;;;;;;;27.05;24.25;;;;;;;1.63;99.90;103695.25;5047456;28;20370;-79
2023/01/24 02:46:02;;;;;;;27.35;24.50;;;;;;;1.63;99.72;103693.53;5047303;28;20028;-79
2023/01/24 02:48:28;;;;;;;26.83;24.08;;;;;;;1.62;99.59;103697.00;5046929;28;20401;-79
2023/01/24 02:53:39;;;;;;;26.80;23.92;;;;;;;1.62;100.00;103698.72;5047835;28;20040;-79
2023/01/24 02:58:53;;;;;;;28.60;25.58;;;;;;;1.61;100.00;103700.44;5040682;28;20508;-78
2023/01/24 03:01:20;;;;;;;28.60;25.50;;;;;;;1.59;100.00;103699.53;5049658;28;20108;-79
2023/01/24 03:03:50;;;;;;;29.35;26.23;;;;;;;1.57;100.00;103704.69;5047753;28;20473;-79
2023/01/24 03:06:17;;;;;;;30.42;25.88;;;;;;;1.58;100.00;103698.66;5047506;28;20028;-79
2023/01/24 03:08:44;;;;;;;28.10;25.08;;;;;;;1.59;100.00;103702.13;5047545;28;20049;-79
2023/01/24 03:11:10;;;;;;;29.15;25.75;;;;;;;1.57;100.00;103693.47;5049166;28;20024;-79
2023/01/24 03:35:34;;;;;;;28.52;25.48;;;;;;;1.52;100.00;103692.56;5038775;28;20529;-79
2023/01/24 03:40:44;;;;;;;29.02;25.80;;;;;;;1.50;100.00;103691.66;5052077;28;20044;-79
2023/01/24 03:43:09;;;;;;;29.05;26.00;;;;;;;1.50;100.00;103692.53;5051856;28;20477;-79
2023/01/24 03:45:37;;;;;;;28.27;25.38;;;;;;;1.48;100.00;103691.66;5046898;28;20131;-79
2023/01/24 03:48:14;;;;;;;28.40;25.30;;;;;;;1.49;100.00;103689.94;5050396;28;20090;-79
2023/01/24 03:53:28;;;;;;;28.08;25.17;;;;;;;1.46;100.00;103692.50;5050984;28;20098;-79
2023/01/24 03:55:56;;;;;;;28.35;25.30;;;;;;;1.43;100.00;103682.09;5052157;28;20521;-79
2023/01/24 03:58:22;;;;;;;28.48;25.38;;;;;;;1.42;100.00;103706.28;5051015;28;20024;-79
2023/01/24 04:00:48;;;;;;;28.85;25.75;;;;;;;1.39;100.00;103694.16;5050333;28;20028;-79
2023/01/24 04:03:13;;;;;;;28.60;25.58;;;;;;;1.38;100.00;103692.44;5050366;28;20135;-79
2023/01/24 04:05:39;;;;;;;27.35;24.42;;;;;;;1.37;100.00;103682.91;5052140;28;20032;-79
2023/01/24 04:08:05;;;;;;;28.58;25.38;;;;;;;1.36;100.00;103686.34;5043516;28;20132;-79
2023/01/24 04:10:30;;;;;;;27.95;25.02;;;;;;;1.36;100.00;103686.34;5050094;28;20029;-79
2023/01/24 04:12:56;;;;;;;28.20;25.05;;;;;;;1.35;100.00;103686.34;5049868;28;20035;-79
2023/01/24 04:15:28;;;;;;;29.35;26.25;;;;;;;1.34;100.00;103695.84;5046083;28;20036;-78
2023/01/24 04:17:56;;;;;;;29.05;25.80;;;;;;;1.33;100.00;103693.25;5031808;28;20025;-79
2023/01/24 04:20:21;;;;;;;28.25;25.08;;;;;;;1.32;100.00;103702.75;5040439;28;20029;-82
2023/01/24 04:22:47;;;;;;;29.60;25.75;;;;;;;1.31;100.00;103689.75;5050046;28;20044;-79
2023/01/24 04:25:12;;;;;;;28.90;25.05;;;;;;;1.31;100.00;103689.75;5040999;28;20017;-79
2023/01/24 04:27:37;;;;;;;29.48;26.08;;;;;;;1.31;100.00;103685.44;5051363;28;20869;-79
2023/01/24 04:30:06;;;;;;;29.13;25.95;;;;;;;1.31;100.00;103700.13;5050473;28;20159;-79
2023/01/24 04:32:31;;;;;;;29.17;26.08;;;;;;;1.30;100.00;103696.66;5043481;28;20024;-79
2023/01/24 04:34:56;;;;;;;28.25;25.25;;;;;;;1.30;100.00;103688.88;5049594;28;20528;-79
2023/01/24 04:37:22;;;;;;;28.45;25.42;;;;;;;1.30;100.00;103690.63;5051185;28;20029;-79
2023/01/24 04:39:47;;;;;;;30.10;26.20;;;;;;;1.28;100.00;103697.50;5051164;28;20082;-79
2023/01/24 04:42:12;;;;;;;28.52;25.48;;;;;;;1.27;100.00;103699.22;5041520;28;20103;-79
2023/01/24 04:44:38;;;;;;;28.00;25.15;;;;;;;1.25;100.00;103696.63;5047306;28;20033;-82
2023/01/24 04:47:03;;;;;;;28.08;25.13;;;;;;;1.26;100.00;103689.72;5046867;28;20532;-79
2023/01/24 04:49:28;;;;;;;28.40;25.40;;;;;;;1.24;100.00;103687.09;5050825;28;20025;-79
2023/01/24 04:51:54;;;;;;;28.33;25.30;;;;;;;1.25;100.00;103691.44;5050536;28;20032;-79
2023/01/24 04:54:19;;;;;;;27.77;24.85;;;;;;;1.24;100.00;103699.22;5049830;28;20055;-82
2023/01/24 04:56:45;;;;;;;28.88;25.88;;;;;;;1.24;100.00;103702.66;5041865;28;20043;-82
2023/01/24 04:59:12;;;;;;;29.67;26.42;;;;;;;1.24;100.00;103705.25;5050733;28;20028;-79
2023/01/24 05:01:37;;;;;;;28.80;25.80;;;;;;;1.23;100.00;103698.34;5052125;28;20039;-79
2023/01/24 05:04:03;;;;;;;29.42;26.33;;;;;;;1.22;100.00;103696.59;5051265;28;20025;-79
2023/01/24 05:06:30;;;;;;;28.30;25.40;;;;;;;1.21;100.00;103700.03;5050532;28;20033;-79
2023/01/24 05:08:55;;;;;;;29.75;26.13;;;;;;;1.21;100.00;103700.03;5049998;28;20035;-79
2023/01/24 05:11:21;;;;;;;27.50;24.52;;;;;;;1.20;100.00;103694.81;5048941;28;20033;-76
2023/01/24 05:13:47;;;;;;;29.42;26.40;;;;;;;1.18;100.00;103694.78;5039730;28;20040;-78
2023/01/24 05:16:13;;;;;;;28.70;25.70;;;;;;;1.18;100.00;103694.78;5038340;28;20028;-77
2023/01/24 05:18:38;;;;;;;29.00;25.95;;;;;;;1.17;100.00;103703.44;5051706;28;20021;-77
2023/01/24 05:21:10;;;;;;;28.35;25.52;;;;;;;1.18;100.00;103699.97;5050043;28;20469;-78
2023/01/24 05:23:35;;;;;;;28.15;25.25;;;;;;;1.17;100.00;103706.03;5049397;28;20044;-77
2023/01/24 05:26:01;;;;;;;28.58;25.60;;;;;;;1.18;100.00;103712.94;5049398;28;20035;-78
2023/01/24 05:28:27;;;;;;;32.28;25.90;;;;;;;1.18;100.00;103705.16;5049711;28;20086;-77
2023/01/24 05:30:52;;;;;;;27.83;24.90;;;;;;;1.19;100.00;103712.09;5042997;28;20033;-77
2023/01/24 05:33:17;;;;;;;26.95;24.25;;;;;;;1.19;100.00;103712.09;5049713;28;20060;-78
2023/01/24 05:35:44;;;;;;;29.08;25.98;;;;;;;1.17;100.00;103708.59;5048648;28;20111;-78
2023/01/24 05:38:10;;;;;;;28.83;25.65;;;;;;;1.17;100.00;103715.53;5046592;28;20017;-78
2023/01/24 05:40:35;;;;;;;28.70;25.63;;;;;;;1.18;100.00;103712.06;5050770;28;20086;-77
2023/01/24 05:43:01;;;;;;;28.42;25.42;;;;;;;1.15;100.00;103710.31;5049532;28;20033;-81
2023/01/24 05:45:27;;;;;;;28.55;25.10;;;;;;;1.16;100.00;103719.84;5049162;28;20052;-81
2023/01/24 05:47:52;;;;;;;27.80;24.80;;;;;;;1.14;100.00;103713.75;5040984;28;20028;-78
2023/01/24 05:50:18;;;;;;;28.73;25.83;;;;;;;1.14;100.00;103718.94;5049032;28;20020;-77
2023/01/24 05:52:43;;;;;;;29.08;26.05;;;;;;;1.14;100.00;103723.28;5047046;28;20028;-81
2023/01/24 05:55:09;;;;;;;28.95;25.90;;;;;;;1.13;100.00;103722.41;5048006;28;20017;-81
2023/01/24 05:57:36;;;;;;;27.88;24.98;;;;;;;1.13;100.00;103735.38;5050452;28;20021;-78
2023/01/24 06:00:04;;;;;;;29.92;25.80;;;;;;;1.13;100.00;103737.97;5047498;28;20043;-78
2023/01/24 06:02:31;;;;;;;28.63;25.60;;;;;;;1.13;100.00;103732.75;5040152;28;20028;-78
2023/01/24 06:04:56;;;;;;;27.52;24.63;;;;;;;1.13;100.00;103735.38;5046929;28;20504;-78
2023/01/24 06:07:22;;;;;;;27.60;24.70;;;;;;;1.13;100.00;103737.97;5047354;28;20057;-78
2023/01/24 06:09:47;;;;;;;27.27;24.38;;;;;;;1.12;100.00;103738.81;5048993;28;20060;-78
2023/01/24 06:12:12;;;;;;;26.60;23.80;;;;;;;1.14;100.00;103744.88;5049454;28;20029;-77
2023/01/24 06:14:38;;;;;;;26.00;23.33;;;;;;;1.10;100.00;103737.91;5048540;28;20073;-78
2023/01/24 06:17:03;;;;;;;27.42;24.55;;;;;;;1.08;100.00;103744.81;5049712;28;20108;-78
2023/01/24 06:19:30;;;;;;;26.55;23.75;;;;;;;1.10;100.00;103747.41;5043849;28;20460;-77
2023/01/24 06:22:18;;;;;;;26.17;23.52;;;;;;;1.10;100.00;103743.09;5049658;28;20036;-78
2023/01/24 06:24:44;;;;;;;26.85;24.15;;;;;;;1.07;100.00;103743.06;5050868;28;20405;-77
2023/01/24 06:27:10;;;;;;;26.33;23.52;;;;;;;1.09;100.00;103740.50;5049798;28;20033;-78
2023/01/24 06:29:36;;;;;;;26.17;23.48;;;;;;;1.07;100.00;103748.25;5047298;28;20090;-77
2023/01/24 06:32:37;;;;;;;27.02;24.23;;;;;;;1.07;100.00;103750.84;5035334;28;20432;-78
2023/01/24 06:35:20;;;;;;;27.23;23.58;;;;;;;1.08;100.00;103754.31;5041332;28;20037;-78
2023/01/24 06:37:50;;;;;;;26.95;24.17;;;;;;;1.05;100.00;103755.16;5039250;28;20076;-78
2023/01/24 06:40:19;;;;;;;26.65;23.95;;;;;;;1.03;100.00;103751.66;5048714;28;20028;-78
2023/01/24 06:42:45;;;;;;;27.17;24.33;;;;;;;1.03;100.00;103762.03;5048524;28;20090;-79
2023/01/24 06:45:11;;;;;;;27.08;24.25;;;;;;;1.03;100.00;103761.16;5043643;28;20446;-78
2023/01/24 06:47:37;;;;;;;27.90;24.92;;;;;;;1.04;100.00;103760.31;5044240;28;20032;-78
2023/01/24 06:50:04;;;;;;;26.48;23.67;;;;;;;1.01;100.00;103758.56;5045014;28;20025;-78
2023/01/24 06:52:30;;;;;;;27.60;24.70;;;;;;;1.02;100.00;103765.47;5035758;28;20021;-78
2023/01/24 06:54:56;;;;;;;28.35;25.45;;;;;;;0.99;100.00;103767.16;5044210;28;20528;-78
2023/01/24 06:57:22;;;;;;;26.52;23.83;;;;;;;0.97;100.00;103767.16;5047879;28;20028;-78
2023/01/24 06:59:47;;;;;;;27.60;24.70;;;;;;;0.97;100.00;103766.28;5049523;28;20017;-78
2023/01/24 07:02:12;;;;;;;28.42;25.40;;;;;;;0.97;100.00;103756.78;5045869;28;20074;-81
2023/01/24 07:04:38;;;;;;;28.20;25.33;;;;;;;0.96;100.00;103760.22;5048263;28;20155;-77
2023/01/24 07:07:06;;;;;;;28.05;25.15;;;;;;;0.97;100.00;103768.88;5047273;28;20067;-77
2023/01/24 07:09:31;;;;;;;29.02;25.70;;;;;;;0.94;100.00;103767.09;5037300;28;20045;-77
2023/01/24 07:11:58;;;;;;;28.02;25.05;;;;;;;0.96;100.00;103769.72;5028743;28;20389;-77
2023/01/24 07:14:24;;;;;;;31.75;26.50;;;;;;;0.96;100.00;103770.59;5044390;28;20507;-77
2023/01/24 07:16:50;;;;;;;30.10;27.02;;;;;;;0.95;100.00;103779.22;5047765;28;20025;-79
2023/01/24 07:19:18;;;;;;;30.27;27.10;;;;;;;0.94;100.00;103780.06;5044674;28;20024;-78
2023/01/24 07:21:44;;;;;;;29.80;26.73;;;;;;;0.92;100.00;103781.78;5048100;28;20032;-79
2023/01/24 07:24:19;;;;;;;29.45;26.25;;;;;;;0.92;100.00;103794.72;5056077;28;20051;-78
2023/01/24 07:26:45;;;;;;;28.77;25.77;;;;;;;0.88;100.00;103795.53;5047290;28;20051;-78
2023/01/24 07:29:11;;;;;;;28.73;25.73;;;;;;;0.88;100.00;103798.13;5045094;28;20021;-78
2023/01/24 07:31:37;;;;;;;26.55;23.73;;;;;;;0.84;100.00;103801.53;5049200;28;20075;-78
2023/01/24 07:34:02;;;;;;;27.80;24.80;;;;;;;0.85;100.00;103803.28;5050757;28;20039;-78
2023/01/24 07:36:28;;;;;;;27.02;24.10;;;;;;;0.83;100.00;103810.16;5050321;28;20024;-78
2023/01/24 07:38:54;;;;;;;26.80;23.90;;;;;;;0.82;100.00;103813.59;5050031;28;20021;-78
2023/01/24 07:41:19;;;;;;;27.90;24.92;;;;;;;0.79;100.00;103814.41;5046862;28;20567;-79
2023/01/24 07:43:44;;;;;;;28.13;25.13;;;;;;;0.78;100.00;103811.78;5051038;28;20033;-78
2023/01/24 07:46:10;;;;;;;27.52;24.27;;;;;;;0.81;100.00;103811.88;5049108;28;20466;-78
2023/01/24 07:48:35;;;;;;;28.20;25.27;;;;;;;0.80;100.00;103811.00;5051088;28;20038;-79
2023/01/24 07:51:01;;;;;;;28.15;25.15;;;;;;;0.81;100.00;103817.03;5060472;28;20017;-79
2023/01/24 07:53:27;;;;;;;29.30;26.10;;;;;;;0.81;100.00;103814.44;5049022;28;20393;-79
2023/01/24 07:55:52;;;;;;;29.23;25.88;;;;;;;0.80;100.00;103815.28;5048851;28;20032;-79
2023/01/24 07:58:17;;;;;;;28.05;25.13;;;;;;;0.78;100.00;103828.22;5049327;28;20025;-79
2023/01/24 08:00:44;;;;;;;27.77;24.77;;;;;;;0.79;100.00;103824.75;5065811;28;20074;-82
2023/01/24 08:03:09;;;;;;;27.48;24.48;;;;;;;0.76;100.00;103831.63;5071736;28;20016;-82
2023/01/24 08:05:37;;;;;;;26.88;24.10;;;;;;;0.75;100.00;103827.28;5057182;28;20033;-79
2023/01/24 08:08:03;;;;;;;28.45;25.40;;;;;;;0.75;100.00;103832.47;5063079;28;20036;-79
2023/01/24 08:10:30;;;;;;;29.80;25.17;;;;;;;0.74;100.00;103831.59;5051655;28;20033;-79
2023/01/24 08:12:56;;;;;;;29.15;25.95;;;;;;;0.74;100.00;103830.72;5052716;28;20593;-79
2023/01/24 08:15:22;;;;;;;28.00;25.00;;;;;;;0.75;100.00;103827.28;5066662;28;20017;-79
2023/01/24 08:17:47;;;;;;;29.52;26.33;;;;;;;0.73;100.00;103829.88;5058585;28;20033;-79
2023/01/24 08:20:13;;;;;;;29.42;26.33;;;;;;;0.76;100.00;103829.03;5054595;28;20025;-79
2023/01/24 08:22:40;;;;;;;30.23;27.00;;;;;;;0.75;100.00;103829.88;5056667;28;20115;-84
2023/01/24 08:25:06;;;;;;;31.05;27.35;;;;;;;0.76;100.00;103823.84;5052287;28;20027;-82
2023/01/24 08:27:31;;;;;;;29.50;26.35;;;;;;;0.76;100.00;103829.91;5051212;28;20028;-79
2023/01/24 08:29:57;;;;;;;30.67;27.40;;;;;;;0.77;100.00;103836.84;5050034;28;20504;-80
2023/01/24 08:32:22;;;;;;;30.90;26.85;;;;;;;0.75;100.00;103828.16;5050449;28;20012;-79
2023/01/24 08:34:47;;;;;;;31.42;27.77;;;;;;;0.76;100.00;103831.63;5047409;28;20231;-79
2023/01/24 08:37:13;;;;;;;31.52;27.55;;;;;;;0.77;100.00;103833.38;5058114;28;20040;-79
2023/01/24 08:39:38;;;;;;;31.17;27.80;;;;;;;0.77;100.00;103846.31;5059090;28;20024;-79
2023/01/24 08:42:03;;;;;;;31.25;26.60;;;;;;;0.76;100.00;103844.59;5057399;28;20023;-79
2023/01/24 08:44:29;;;;;;;31.13;26.77;;;;;;;0.77;100.00;103846.31;5063225;28;20051;-79
2023/01/24 08:46:56;;;;;;;28.48;25.38;;;;;;;0.77;100.00;103848.91;5058630;28;20024;-79
2023/01/24 08:49:21;;;;;;;28.60;25.50;;;;;;;0.76;100.00;103854.94;5055449;28;20029;-79
2023/01/24 08:51:47;;;;;;;28.85;25.80;;;;;;;0.77;100.00;103856.69;5049536;28;20501;-79
2023/01/24 08:54:13;;;;;;;27.95;24.95;;;;;;;0.75;100.00;103855.78;5049716;28;20028;-79
2023/01/24 08:56:38;;;;;;;28.77;25.67;;;;;;;0.74;100.00;103854.94;5068161;28;20028;-79
2023/01/24 08:59:06;;;;;;;28.40;25.33;;;;;;;0.76;100.00;103860.13;5056966;28;20062;-79
2023/01/24 09:01:33;;;;;;;29.52;26.38;;;;;;;0.76;100.00;103862.72;5075878;28;20032;-79
2023/01/24 09:03:59;;;;;;;28.40;25.27;;;;;;;0.77;100.00;103867.06;5064696;28;20028;-79
2023/01/24 09:06:25;;;;;;;28.67;25.38;;;;;;;0.76;100.00;103861.00;5054445;28;20945;-79
2023/01/24 09:08:54;;;;;;;29.90;25.83;;;;;;;0.78;100.00;103868.78;5065735;28;20031;-79
2023/01/24 09:11:20;;;;;;;27.83;24.83;;;;;;;0.77;100.00;103869.66;5058623;28;20024;-79
2023/01/24 09:13:46;;;;;;;27.73;24.73;;;;;;;0.77;100.00;103867.06;5068867;28;20033;-79
2023/01/24 09:16:13;;;;;;;27.90;24.90;;;;;;;0.76;100.00;103871.38;5054166;28;20074;-78
2023/01/24 09:18:38;;;;;;;28.15;24.33;;;;;;;0.75;100.00;103873.94;5066621;28;20031;-79
2023/01/24 09:21:07;;;;;;;28.60;25.50;;;;;;;0.75;100.00;103863.56;5057853;28;20381;-79
2023/01/24 09:23:32;;;;;;;28.40;25.30;;;;;;;0.76;100.00;103854.94;5059706;28;20097;-79
2023/01/24 09:25:59;;;;;;;28.35;24.88;;;;;;;0.74;100.00;103865.28;5080417;28;20115;-79
2023/01/24 09:28:24;;;;;;;29.70;26.30;;;;;;;0.75;100.00;103863.56;5053635;28;20031;-79
2023/01/24 09:30:50;;;;;;;28.38;24.73;;;;;;;0.74;100.00;103864.41;5064590;28;20032;-79
2023/01/24 09:33:17;;;;;;;27.63;24.63;;;;;;;0.74;100.00;103861.81;5030820;28;20060;-79
2023/01/24 09:35:52;;;;;;;29.27;25.50;;;;;;;0.76;100.00;103863.59;5013087;28;20028;-79
2023/01/24 09:38:17;;;;;;;29.27;25.33;;;;;;;0.78;100.00;103863.63;5029098;28;20079;-79
2023/01/24 09:40:46;;;;;;;29.70;25.45;;;;;;;0.81;100.00;103868.88;5029334;28;20025;-79
2023/01/24 09:43:52;;;;;;;28.38;25.23;;;;;;;0.86;100.00;103877.59;5029125;28;20025;-79
2023/01/24 09:46:51;;;;;;;29.92;26.27;;;;;;;0.84;100.00;103880.16;4988385;28;20094;-79
2023/01/24 09:49:44;;;;;;;29.63;26.35;;;;;;;0.87;100.00;103875.03;5030533;28;20421;-79
2023/01/24 09:52:17;;;;;;;31.77;26.55;;;;;;;0.87;100.00;103874.16;5023815;28;20091;-79
2023/01/24 09:54:57;;;;;;;31.38;26.10;;;;;;;0.90;100.00;103874.19;5030612;28;20078;-79
2023/01/24 09:57:31;;;;;;;28.98;25.52;;;;;;;0.93;100.00;103882.00;5029046;28;20025;-79
2023/01/24 10:00:03;;;;;;;28.95;24.90;;;;;;;0.93;100.00;103885.47;5029231;28;20018;-79
2023/01/24 10:02:29;;;;;;;28.88;25.13;;;;;;;0.93;100.00;103889.78;5028764;28;20133;-79
2023/01/24 10:04:55;;;;;;;27.38;24.35;;;;;;;0.95;100.00;103888.09;5032765;28;20096;-79
2023/01/24 10:07:20;;;;;;;27.77;24.48;;;;;;;0.99;100.00;103884.69;5028916;28;20107;-79
2023/01/24 10:10:17;;;;;;;27.83;24.83;;;;;;;1.01;100.00;103895.09;5045910;28;20028;-79
2023/01/24 10:13:08;;;;;;;28.33;25.27;;;;;;;1.01;100.00;103889.91;5030376;28;20563;-79
2023/01/24 10:16:06;;;;;;;27.45;24.00;;;;;;;1.01;100.00;103888.19;5031067;28;20030;-79
2023/01/24 10:18:34;;;;;;;27.33;23.05;;;;;;;1.01;100.00;103883.00;5030886;28;20075;-79
2023/01/24 10:21:12;;;;;;;25.10;22.40;;;;;;;1.01;100.00;103892.50;5042209;28;20026;-79
2023/01/24 10:23:41;;;;;;;25.25;21.40;;;;;;;0.98;100.00;103898.50;5029378;28;20032;-79
2023/01/24 10:26:20;;;;;;;27.20;21.42;;;;;;;0.98;100.00;103893.31;5029481;28;20026;-79
2023/01/24 10:28:50;;;;;;;24.48;21.75;;;;;;;0.97;100.00;103891.56;5030634;28;20482;-79
2023/01/24 10:31:28;;;;;;;24.73;22.08;;;;;;;1.00;100.00;103896.81;5034801;28;20066;-79
2023/01/24 10:34:08;;;;;;;27.67;22.52;;;;;;;1.01;100.00;103890.75;5049518;28;20039;-79
2023/01/24 10:36:50;;;;;;;23.83;20.70;;;;;;;1.04;100.00;103893.41;5049153;28;20021;-79
2023/01/24 10:39:16;;;;;;;23.75;21.25;;;;;;;1.04;100.00;103885.63;5060662;28;20032;-78
2023/01/24 10:41:41;;;;;;;22.55;20.20;;;;;;;1.03;99.94;103893.38;5049697;28;20025;-78
2023/01/24 10:44:25;;;;;;;24.33;20.23;;;;;;;1.07;99.76;103888.25;5048578;28;20563;-78
2023/01/24 10:46:53;;;;;;;22.85;20.45;;;;;;;1.03;99.40;103891.66;5047636;28;20025;-78
2023/01/24 10:49:31;;;;;;;21.77;19.33;;;;;;;1.06;98.51;103888.22;5048132;28;20453;-78
2023/01/24 10:52:36;;;;;;;22.98;20.15;;;;;;;1.07;98.59;103885.66;5048461;28;20017;-78
2023/01/24 10:55:20;;;;;;;23.00;20.50;;;;;;;1.04;98.67;103882.16;5010550;28;20125;-78
2023/01/24 10:57:54;;;;;;;23.23;20.35;;;;;;;1.02;99.20;103879.53;5007858;28;20029;-78
2023/01/24 11:00:29;;;;;;;24.45;20.67;;;;;;;1.05;98.83;103883.91;5021640;28;20057;-78
2023/01/24 11:02:57;;;;;;;24.08;21.48;;;;;;;1.08;99.95;103883.94;5028555;28;20033;-78
2023/01/24 11:05:24;;;;;;;21.15;18.92;;;;;;;1.06;98.42;103881.31;5029237;28;20017;-79
2023/01/24 11:07:52;;;;;;;21.85;19.55;;;;;;;1.06;98.88;103883.91;5027751;28;20042;-78
2023/01/24 11:10:24;;;;;;;21.77;19.48;;;;;;;1.08;98.65;103878.75;5045194;28;20031;-78
2023/01/24 11:12:56;;;;;;;22.05;19.58;;;;;;;1.08;99.27;103871.84;5030228;28;20486;-82
2023/01/24 11:15:31;;;;;;;20.80;18.52;;;;;;;1.06;98.33;103876.16;5044051;28;20116;-78
2023/01/24 11:18:11;;;;;;;22.02;19.63;;;;;;;1.09;99.04;103875.31;5027582;28;20040;-78
2023/01/24 11:20:37;;;;;;;22.90;20.35;;;;;;;1.03;98.33;103865.72;5043471;28;20478;-77
2023/01/24 11:23:24;;;;;;;22.05;19.35;;;;;;;1.05;98.13;103866.63;5026974;28;20486;-78
2023/01/24 11:25:54;;;;;;;21.20;18.90;;;;;;;1.01;98.13;103859.66;5027791;28;20075;-81
2023/01/24 11:28:29;;;;;;;21.90;19.50;;;;;;;1.05;98.30;103857.97;5031796;28;20033;-82
2023/01/24 11:30:58;;;;;;;20.45;18.05;;;;;;;1.03;98.68;103859.69;5030633;28;20029;-77
2023/01/24 11:33:41;;;;;;;20.58;18.42;;;;;;;1.04;97.70;103851.91;5049447;28;20029;-78
2023/01/24 11:36:24;;;;;;;21.75;19.45;;;;;;;1.02;97.67;103848.44;5047112;28;20029;-78
2023/01/24 11:38:53;;;;;;;21.88;19.52;;;;;;;1.00;97.32;103849.28;5049189;28;20021;-78
2023/01/24 11:41:27;;;;;;;22.65;20.02;;;;;;;1.03;97.83;103854.50;5049780;28;20025;-78
2023/01/24 11:44:14;;;;;;;22.67;19.38;;;;;;;1.07;98.64;103851.09;5048998;28;20017;-77
2023/01/24 11:46:49;;;;;;;21.58;19.27;;;;;;;1.04;97.39;103841.56;5048749;28;20030;-78
2023/01/24 11:50:01;;;;;;;20.88;18.67;;;;;;;1.06;97.50;103839.84;5029587;28;20029;-78
2023/01/24 11:52:45;;;;;;;20.70;18.60;;;;;;;1.07;97.63;103836.41;5048623;28;20394;-78
2023/01/24 11:55:36;;;;;;;21.10;18.90;;;;;;;1.03;97.60;103842.41;5032967;28;20445;-82
2023/01/24 11:58:29;;;;;;;20.27;17.98;;;;;;;1.07;97.39;103836.41;5031380;28;20079;-78